Time;durP1;ratioP1;P1;durP2;ratioP2;P2;SDS_P1;SDS_P2;PMS_P1;PMS_P2;Temp;Humidity;BMP_temperature;BMP_pressure;BME280_temperature;BME280_humidity;BME280_pressure;Samples;Min_cycle;Max_cycle;Signal;HPM_P1;HPM_P2
2022/07/21 00:01:05;;;;;;;20.80;10.10;;;22.30;36.10;;;;;;5050327;28;20919;-66
2022/07/21 00:03:32;;;;;;;15.73;11.20;;;22.20;36.10;;;;;;5045528;28;20525;-65
2022/07/21 00:05:59;;;;;;;13.23;10.20;;;22.20;36.10;;;;;;5045752;28;20458;-65
2022/07/21 00:08:26;;;;;;;14.03;10.67;;;22.20;36.00;;;;;;5042855;28;20544;-66
2022/07/21 00:10:53;;;;;;;15.10;10.03;;;22.10;36.80;;;;;;5044259;28;20492;-66
2022/07/21 00:13:20;;;;;;;14.20;10.03;;;22.10;36.80;;;;;;5044029;28;20556;-64
2022/07/21 00:15:47;;;;;;;10.87;9.60;;;22.10;37.00;;;;;;5042080;28;20478;-64
2022/07/21 00:18:15;;;;;;;14.73;10.63;;;22.10;36.60;;;;;;5043327;28;20556;-64
2022/07/21 00:20:42;;;;;;;13.33;11.40;;;22.10;36.90;;;;;;5046893;28;21000;-64
2022/07/21 00:23:09;;;;;;;11.97;10.70;;;22.00;36.80;;;;;;5045574;28;20465;-66
2022/07/21 00:25:36;;;;;;;11.97;9.43;;;22.00;36.70;;;;;;5042969;28;20502;-65
2022/07/21 00:28:04;;;;;;;12.73;10.03;;;22.00;36.80;;;;;;5047598;28;20493;-64
2022/07/21 00:30:31;;;;;;;13.80;10.80;;;22.00;36.90;;;;;;5044070;28;20499;-64
2022/07/21 00:32:58;;;;;;;14.27;11.53;;;21.90;36.90;;;;;;5045503;28;20557;-64
2022/07/21 00:35:26;;;;;;;12.27;10.47;;;21.90;37.30;;;;;;5046170;28;20569;-64
2022/07/21 00:37:53;;;;;;;12.43;10.97;;;21.90;37.20;;;;;;5047619;28;20560;-64
2022/07/21 00:40:20;;;;;;;15.90;12.43;;;21.90;37.20;;;;;;5047038;28;20493;-64
2022/07/21 00:42:47;;;;;;;13.93;11.07;;;21.80;37.40;;;;;;5048224;28;20473;-65
2022/07/21 00:45:14;;;;;;;14.00;10.80;;;21.80;37.20;;;;;;5045193;28;20462;-63
2022/07/21 00:47:42;;;;;;;16.07;12.00;;;21.90;37.00;;;;;;5046425;28;20561;-64
2022/07/21 00:50:13;;;;;;;14.13;11.77;;;21.90;37.00;;;;;;5076042;23;20495;-60
2022/07/21 00:52:42;;;;;;;13.33;11.93;;;21.90;37.30;;;;;;5067124;28;21172;-60
2022/07/21 00:55:11;;;;;;;13.20;11.63;;;21.90;37.60;;;;;;5067146;28;20480;-60
2022/07/21 00:57:38;;;;;;;14.80;12.77;;;22.00;37.90;;;;;;5077315;28;20980;-59
2022/07/21 01:00:09;;;;;;;14.30;12.63;;;22.10;37.60;;;;;;5076445;28;20487;-61
2022/07/21 01:02:36;;;;;;;15.73;12.73;;;22.10;37.40;;;;;;5070466;28;20484;-59
2022/07/21 01:05:04;;;;;;;13.33;11.93;;;22.20;37.60;;;;;;5070024;28;20457;-61
2022/07/21 01:07:31;;;;;;;14.40;11.67;;;22.20;37.00;;;;;;5064550;28;20483;-60
2022/07/21 01:10:00;;;;;;;13.97;12.47;;;22.10;36.80;;;;;;5063379;28;20937;-60
2022/07/21 01:12:27;;;;;;;17.00;13.50;;;22.00;37.00;;;;;;5064910;28;20465;-60
2022/07/21 01:14:54;;;;;;;14.80;12.73;;;21.90;37.30;;;;;;5068224;28;20485;-61
2022/07/21 01:17:22;;;;;;;18.20;14.83;;;21.80;37.50;;;;;;5067150;28;20511;-59
2022/07/21 01:19:49;;;;;;;14.57;12.50;;;21.80;37.40;;;;;;5065793;28;20476;-61
2022/07/21 01:22:18;;;;;;;15.40;13.80;;;21.80;37.60;;;;;;5065370;28;21167;-59
2022/07/21 01:24:45;;;;;;;18.07;15.20;;;21.70;37.90;;;;;;5066599;28;20489;-58
2022/07/21 01:27:12;;;;;;;19.40;15.70;;;21.70;38.20;;;;;;5067680;28;20488;-60
2022/07/21 01:29:39;;;;;;;17.13;14.03;;;21.70;37.90;;;;;;5062921;28;20492;-59
2022/07/21 01:32:06;;;;;;;17.20;15.00;;;21.70;37.90;;;;;;5065500;28;20568;-59
2022/07/21 01:34:33;;;;;;;16.70;15.00;;;21.70;37.70;;;;;;5063964;28;20519;-61
2022/07/21 01:37:00;;;;;;;15.97;14.30;;;21.70;37.90;;;;;;5068613;28;20533;-60
2022/07/21 01:42:13;;;;;;;17.33;15.20;;;21.70;38.10;;;;;;5065119;28;20835;-59
2022/07/21 01:44:40;;;;;;;19.00;15.77;;;21.70;37.70;;;;;;5070664;28;20457;-61
2022/07/21 01:47:07;;;;;;;16.97;15.20;;;21.60;38.20;;;;;;5070087;28;20465;-59
2022/07/21 01:49:34;;;;;;;17.27;14.70;;;21.70;37.90;;;;;;5063438;28;20529;-60
2022/07/21 01:52:01;;;;;;;16.77;14.83;;;21.70;37.50;;;;;;5067206;28;20483;-60
2022/07/21 01:54:30;;;;;;;16.73;14.93;;;21.70;37.80;;;;;;5071187;28;20461;-61
2022/07/21 01:56:57;;;;;;;15.53;14.03;;;21.70;37.60;;;;;;5059873;28;20504;-60
2022/07/21 01:59:24;;;;;;;16.90;15.10;;;21.70;37.80;;;;;;5071297;28;20467;-60
2022/07/21 02:01:51;;;;;;;17.23;15.37;;;21.70;37.60;;;;;;5067814;28;20480;-64
2022/07/21 02:04:18;;;;;;;17.23;14.80;;;21.70;37.80;;;;;;5065549;28;20518;-61
2022/07/21 02:06:45;;;;;;;16.20;13.83;;;21.80;38.50;;;;;;5068967;28;20468;-59
2022/07/21 02:09:12;;;;;;;18.30;14.07;;;21.80;37.60;;;;;;5073337;28;20486;-59
2022/07/21 02:11:41;;;;;;;16.63;14.93;;;21.80;37.50;;;;;;5065854;28;20949;-61
2022/07/21 02:14:08;;;;;;;17.37;15.17;;;21.90;37.60;;;;;;5059476;28;20465;-59
2022/07/21 02:16:35;;;;;;;20.17;16.90;;;21.90;37.50;;;;;;5070379;28;20546;-60
2022/07/21 02:19:02;;;;;;;15.57;14.07;;;21.90;37.40;;;;;;5067598;28;20500;-59
2022/07/21 02:21:29;;;;;;;17.60;15.80;;;21.90;37.30;;;;;;5064886;28;20488;-60
2022/07/21 02:23:57;;;;;;;19.33;14.83;;;21.80;37.60;;;;;;5062733;28;20476;-59
2022/07/21 02:26:24;;;;;;;17.77;14.80;;;21.90;37.50;;;;;;5067834;28;20465;-60
2022/07/21 02:28:52;;;;;;;17.43;15.73;;;21.90;37.40;;;;;;5070322;28;20472;-59
2022/07/21 02:31:19;;;;;;;19.00;17.00;;;21.90;37.50;;;;;;5070708;28;20543;-60
2022/07/21 02:33:46;;;;;;;18.20;16.37;;;21.90;37.80;;;;;;5082957;28;20509;-61
2022/07/21 02:36:13;;;;;;;18.80;16.90;;;21.90;37.80;;;;;;5071376;28;20481;-61
2022/07/21 02:38:40;;;;;;;16.67;14.97;;;21.90;37.80;;;;;;5072709;28;20472;-60
2022/07/21 02:41:07;;;;;;;18.20;15.67;;;21.90;37.80;;;;;;5064858;28;20477;-60
2022/07/21 02:43:34;;;;;;;18.33;16.53;;;21.90;38.10;;;;;;5067886;28;20515;-61
2022/07/21 02:46:02;;;;;;;17.80;15.90;;;21.80;38.10;;;;;;5066927;28;20461;-62
2022/07/21 02:48:29;;;;;;;18.70;16.03;;;21.80;38.00;;;;;;5067099;28;20459;-59
2022/07/21 02:50:56;;;;;;;19.77;17.27;;;21.80;37.80;;;;;;5064580;28;20593;-61
2022/07/21 02:53:23;;;;;;;21.80;16.60;;;21.80;38.20;;;;;;5057960;28;20469;-59
2022/07/21 02:55:52;;;;;;;20.03;17.90;;;21.80;38.40;;;;;;5063625;28;20527;-61
2022/07/21 02:58:21;;;;;;;17.40;15.60;;;21.80;38.70;;;;;;5066124;28;20457;-61
2022/07/21 03:00:51;;;;;;;21.03;16.47;;;21.80;38.70;;;;;;5067812;28;20466;-61
2022/07/21 03:03:20;;;;;;;22.20;17.37;;;21.80;38.80;;;;;;5059917;28;20869;-59
2022/07/21 03:05:47;;;;;;;18.87;15.07;;;21.80;38.70;;;;;;5063121;28;20457;-59
2022/07/21 03:08:14;;;;;;;18.83;16.87;;;21.90;39.10;;;;;;5061955;28;20544;-58
2022/07/21 03:10:41;;;;;;;21.03;17.00;;;21.90;38.60;;;;;;5062193;28;20492;-60
2022/07/21 03:13:08;;;;;;;17.93;15.73;;;22.00;38.30;;;;;;5065657;28;20492;-60
2022/07/21 03:15:35;;;;;;;17.57;15.87;;;22.00;38.30;;;;;;5059509;28;20513;-59
2022/07/21 03:18:02;;;;;;;19.03;17.00;;;22.00;37.80;;;;;;5067473;28;21146;-59
2022/07/21 03:20:33;;;;;;;19.20;15.97;;;22.00;37.70;;;;;;5063992;28;20481;-58
2022/07/21 03:23:00;;;;;;;25.10;19.00;;;22.00;38.10;;;;;;5066238;28;20825;-59
2022/07/21 03:25:27;;;;;;;20.27;18.27;;;21.90;38.50;;;;;;5067033;28;21007;-59
2022/07/21 03:27:55;;;;;;;18.13;16.23;;;21.90;38.50;;;;;;5059557;28;20453;-60
2022/07/21 03:30:22;;;;;;;20.87;16.83;;;21.90;38.40;;;;;;5063039;28;20484;-60
2022/07/21 03:32:50;;;;;;;21.27;16.97;;;21.90;38.60;;;;;;5066035;28;20464;-59
2022/07/21 03:35:17;;;;;;;19.90;17.90;;;21.90;38.60;;;;;;5055837;28;20466;-59
2022/07/21 03:37:47;;;;;;;20.70;16.87;;;21.80;38.30;;;;;;5065982;28;20457;-60
2022/07/21 03:40:16;;;;;;;19.10;17.20;;;21.80;38.40;;;;;;5061363;28;20480;-60
2022/07/21 03:42:43;;;;;;;20.03;17.90;;;21.90;38.50;;;;;;5061406;28;20453;-59
2022/07/21 03:45:11;;;;;;;23.77;18.43;;;21.90;38.50;;;;;;5060450;28;20453;-59
2022/07/21 03:47:38;;;;;;;22.80;19.07;;;21.90;38.50;;;;;;5058777;28;20458;-61
2022/07/21 03:50:07;;;;;;;21.20;18.83;;;21.90;38.50;;;;;;5069221;28;21313;-61
2022/07/21 03:52:34;;;;;;;22.17;17.70;;;21.90;38.60;;;;;;5064778;28;20461;-59
2022/07/21 03:55:14;;;;;;;23.73;17.97;;;22.00;38.40;;;;;;5064608;28;20465;-60
2022/07/21 03:57:43;;;;;;;21.40;19.03;;;22.00;38.30;;;;;;5065477;28;20514;-60
2022/07/21 04:00:13;;;;;;;20.23;18.10;;;21.90;38.60;;;;;;5067481;28;20577;-60
2022/07/21 04:02:42;;;;;;;20.27;18.17;;;21.90;38.40;;;;;;5060676;28;20477;-59
2022/07/21 04:05:10;;;;;;;20.77;17.97;;;21.90;38.60;;;;;;5065100;28;20538;-59
2022/07/21 04:07:37;;;;;;;20.27;17.90;;;21.90;38.30;;;;;;5062825;28;20462;-60
2022/07/21 04:10:06;;;;;;;20.33;18.20;;;21.90;38.80;;;;;;5080999;28;20496;-60
2022/07/21 04:12:33;;;;;;;21.40;19.23;;;21.90;38.70;;;;;;5066451;28;20461;-61
2022/07/21 04:14:59;;;;;;;22.87;17.97;;;21.90;38.70;;;;;;5060677;28;20473;-61
2022/07/21 04:17:26;;;;;;;20.03;17.93;;;21.90;38.80;;;;;;5062764;28;21088;-61
2022/07/21 04:19:54;;;;;;;21.17;18.87;;;21.90;38.40;;;;;;5059261;28;20481;-60
2022/07/21 04:22:21;;;;;;;19.30;17.27;;;21.80;38.40;;;;;;5067056;28;20464;-62
2022/07/21 04:24:47;;;;;;;22.60;19.90;;;21.90;38.20;;;;;;5067087;28;20463;-59
2022/07/21 04:27:15;;;;;;;20.13;17.87;;;21.90;38.30;;;;;;5064341;28;20552;-59
2022/07/21 04:29:42;;;;;;;21.30;19.10;;;21.90;38.30;;;;;;5062622;28;21222;-59
2022/07/21 04:32:09;;;;;;;21.77;19.47;;;21.90;38.30;;;;;;5063000;28;20480;-59
2022/07/21 04:34:36;;;;;;;21.23;19.03;;;21.90;38.50;;;;;;5061122;28;20929;-59
2022/07/21 04:37:02;;;;;;;22.07;19.77;;;21.90;38.50;;;;;;5065834;28;20481;-60
2022/07/21 04:39:29;;;;;;;20.03;17.77;;;22.00;38.50;;;;;;5070422;28;20481;-59
2022/07/21 04:41:56;;;;;;;21.23;19.03;;;22.00;38.30;;;;;;5071973;28;20464;-61
2022/07/21 04:44:24;;;;;;;20.37;18.17;;;22.00;39.30;;;;;;5069513;28;20844;-59
2022/07/21 04:46:51;;;;;;;22.07;18.43;;;22.00;38.60;;;;;;5059360;28;20840;-61
2022/07/21 04:49:18;;;;;;;23.70;18.07;;;22.00;38.40;;;;;;5062305;28;20949;-60
2022/07/21 04:51:44;;;;;;;25.83;18.47;;;22.10;38.40;;;;;;5059906;28;20465;-60
2022/07/21 04:54:13;;;;;;;24.27;19.70;;;22.10;38.90;;;;;;5061507;28;20484;-59
2022/07/21 04:56:40;;;;;;;21.37;19.10;;;22.20;38.70;;;;;;5056012;28;20478;-59
2022/07/21 04:59:07;;;;;;;20.50;18.37;;;22.20;39.00;;;;;;5059597;28;20956;-60
2022/07/21 05:01:36;;;;;;;20.63;18.07;;;22.20;39.00;;;;;;5062721;28;20834;-61
2022/07/21 05:04:03;;;;;;;22.33;19.97;;;22.30;38.60;;;;;;5058175;28;20469;-59
2022/07/21 05:06:30;;;;;;;20.93;18.47;;;22.30;38.40;;;;;;5064101;28;20472;-66
2022/07/21 05:08:57;;;;;;;22.87;18.07;;;22.40;38.20;;;;;;5062635;28;20464;-65
2022/07/21 05:11:24;;;;;;;25.20;18.87;;;22.40;37.60;;;;;;5062765;28;20492;-65
2022/07/21 05:13:50;;;;;;;20.80;18.20;;;22.50;37.20;;;;;;5063520;28;20677;-57
2022/07/21 05:16:18;;;;;;;19.17;17.20;;;22.60;36.90;;;;;;5068522;28;20500;-61
2022/07/21 05:18:46;;;;;;;19.27;17.20;;;22.60;37.10;;;;;;5066239;28;20464;-64
2022/07/21 05:21:12;;;;;;;19.63;17.27;;;22.70;36.90;;;;;;5062458;28;20481;-64
2022/07/21 05:23:39;;;;;;;18.70;16.70;;;22.80;36.60;;;;;;5065365;28;20461;-64
2022/07/21 05:26:06;;;;;;;21.00;18.83;;;22.90;36.10;;;;;;5066052;28;20457;-64
2022/07/21 05:28:33;;;;;;;21.87;19.20;;;22.90;36.10;;;;;;5064219;28;20980;-65
2022/07/21 05:31:00;;;;;;;21.27;17.70;;;23.00;35.90;;;;;;5062531;28;20489;-64
2022/07/21 05:33:27;;;;;;;21.10;18.13;;;23.00;35.80;;;;;;5060471;28;20522;-62
2022/07/21 05:35:55;;;;;;;19.67;17.67;;;23.10;35.50;;;;;;5063776;28;20453;-63
2022/07/21 05:38:23;;;;;;;19.37;17.37;;;23.20;35.30;;;;;;5065588;28;20480;-63
2022/07/21 05:40:49;;;;;;;19.53;17.37;;;23.20;35.10;;;;;;5069280;28;20480;-62
2022/07/21 05:43:16;;;;;;;20.37;18.00;;;23.30;35.10;;;;;;5066008;28;20461;-63
2022/07/21 05:45:43;;;;;;;17.17;15.43;;;23.30;35.10;;;;;;5072889;28;20460;-64
2022/07/21 05:48:10;;;;;;;17.30;15.50;;;23.30;34.80;;;;;;5071688;28;20465;-65
2022/07/21 05:50:37;;;;;;;17.37;15.57;;;23.40;34.10;;;;;;5064247;28;20491;-66
2022/07/21 05:53:05;;;;;;;18.83;16.23;;;23.40;33.80;;;;;;5062319;28;20483;-64
2022/07/21 05:55:32;;;;;;;19.10;17.10;;;23.50;33.60;;;;;;5061215;28;20521;-64
2022/07/21 05:57:58;;;;;;;18.27;16.37;;;23.40;33.60;;;;;;5061298;28;20492;-64
2022/07/21 06:00:25;;;;;;;18.13;15.17;;;23.50;33.30;;;;;;5061946;28;20481;-63
2022/07/21 06:02:52;;;;;;;19.47;15.20;;;23.60;33.20;;;;;;5053978;28;20465;-64
2022/07/21 06:05:19;;;;;;;17.50;15.37;;;23.60;33.00;;;;;;5057021;28;20461;-65
2022/07/21 06:07:46;;;;;;;18.60;16.70;;;23.60;32.80;;;;;;5054665;28;20987;-65
2022/07/21 06:10:14;;;;;;;17.87;16.10;;;23.70;32.60;;;;;;5058847;28;21234;-61
2022/07/21 06:12:41;;;;;;;18.70;14.17;;;23.70;32.40;;;;;;5056354;28;20899;-61
2022/07/21 06:15:08;;;;;;;15.77;14.10;;;23.80;32.50;;;;;;5058293;28;21783;-61
2022/07/21 06:17:39;;;;;;;16.27;13.30;;;23.90;32.10;;;;;;5057339;28;21004;-60
2022/07/21 06:20:08;;;;;;;18.90;14.33;;;24.00;31.20;;;;;;5060824;28;20488;-63
2022/07/21 06:22:35;;;;;;;17.63;14.93;;;24.10;31.20;;;;;;5055740;28;20468;-61
2022/07/21 06:25:02;;;;;;;16.23;14.53;;;24.20;30.90;;;;;;5059896;28;20480;-63
2022/07/21 06:27:31;;;;;;;15.73;13.37;;;24.40;30.20;;;;;;5065642;28;20842;-60
2022/07/21 06:29:58;;;;;;;14.53;12.93;;;24.40;30.30;;;;;;5066732;28;20539;-61
2022/07/21 06:32:25;;;;;;;15.80;14.10;;;24.50;30.00;;;;;;5068274;28;21016;-62
2022/07/21 06:34:52;;;;;;;15.67;13.50;;;24.70;29.20;;;;;;5068097;28;20876;-62
2022/07/21 06:37:19;;;;;;;15.00;13.23;;;24.80;29.20;;;;;;5071858;28;20480;-60
2022/07/21 06:39:46;;;;;;;15.03;13.27;;;24.90;28.90;;;;;;5062772;28;20484;-59
2022/07/21 06:42:12;;;;;;;14.87;13.37;;;25.00;28.70;;;;;;5065313;28;20476;-60
2022/07/21 06:44:40;;;;;;;15.17;12.17;;;25.30;27.50;;;;;;5068747;28;20664;-61
2022/07/21 06:47:07;;;;;;;14.90;13.40;;;25.40;26.10;;;;;;5068407;28;20461;-63
2022/07/21 06:49:37;;;;;;;16.40;14.03;;;25.40;26.20;;;;;;5068861;28;20888;-61
2022/07/21 06:52:04;;;;;;;15.93;12.90;;;25.40;26.20;;;;;;5058651;28;20845;-62
2022/07/21 06:54:31;;;;;;;17.17;15.43;;;25.30;26.70;;;;;;5063712;28;21160;-62
2022/07/21 06:56:57;;;;;;;15.10;13.40;;;25.30;26.80;;;;;;5063965;28;20473;-60
2022/07/21 06:59:24;;;;;;;15.13;13.40;;;25.40;27.10;;;;;;5064158;28;20500;-60
2022/07/21 07:01:52;;;;;;;15.30;13.70;;;25.50;25.70;;;;;;5064580;28;20480;-59
2022/07/21 07:04:19;;;;;;;16.10;14.50;;;25.60;24.90;;;;;;5067757;28;20461;-57
2022/07/21 07:06:50;;;;;;;17.60;12.40;;;25.60;25.10;;;;;;5065925;28;20461;-56
2022/07/21 07:09:16;;;;;;;14.27;12.23;;;25.60;25.50;;;;;;5062357;28;21177;-57
2022/07/21 07:11:43;;;;;;;15.70;12.57;;;25.60;24.90;;;;;;5064064;28;20465;-61
2022/07/21 07:14:10;;;;;;;13.63;12.23;;;25.70;24.80;;;;;;5075230;28;20464;-60
2022/07/21 07:16:37;;;;;;;14.23;12.00;;;26.20;25.10;;;;;;5064110;28;20457;-60
2022/07/21 07:19:05;;;;;;;13.83;12.43;;;26.60;22.90;;;;;;5062943;28;20511;-61
2022/07/21 07:21:31;;;;;;;17.63;12.87;;;26.60;22.00;;;;;;5069310;28;20465;-58
2022/07/21 07:23:58;;;;;;;15.00;12.00;;;26.50;22.00;;;;;;5077905;28;20466;-59
2022/07/21 07:26:25;;;;;;;14.17;12.73;;;26.40;22.50;;;;;;5071596;28;20471;-59
2022/07/21 07:28:52;;;;;;;13.67;11.37;;;26.40;22.30;;;;;;5075138;28;20453;-59
2022/07/21 07:31:18;;;;;;;13.67;10.33;;;26.30;21.70;;;;;;5071917;28;21036;-58
2022/07/21 07:33:45;;;;;;;12.33;9.90;;;26.60;21.50;;;;;;5073510;28;20461;-60
2022/07/21 07:36:13;;;;;;;12.87;10.60;;;27.00;20.50;;;;;;5071433;28;20461;-57
2022/07/21 07:38:40;;;;;;;13.50;11.40;;;27.10;20.00;;;;;;5070203;28;20485;-59
2022/07/21 07:41:07;;;;;;;15.67;11.67;;;26.90;20.00;;;;;;5076238;28;20487;-60
2022/07/21 07:43:34;;;;;;;14.50;11.10;;;26.90;20.60;;;;;;5077575;28;20911;-59
2022/07/21 07:46:01;;;;;;;13.77;11.87;;;26.70;20.90;;;;;;5064922;28;20566;-59
2022/07/21 07:48:31;;;;;;;16.20;12.30;;;26.60;21.50;;;;;;5068645;28;20536;-59
2022/07/21 07:50:57;;;;;;;16.00;12.60;;;26.40;21.30;;;;;;5070728;28;20484;-59
2022/07/21 07:53:25;;;;;;;13.27;11.90;;;26.40;21.40;;;;;;5068912;28;20464;-60
2022/07/21 07:55:52;;;;;;;13.63;12.20;;;26.30;21.10;;;;;;5067622;28;20843;-59
2022/07/21 07:58:19;;;;;;;13.10;11.50;;;26.10;21.60;;;;;;5073222;28;20855;-59
2022/07/21 08:00:46;;;;;;;12.10;10.83;;;26.10;21.70;;;;;;5069739;28;20490;-58
2022/07/21 08:03:13;;;;;;;12.50;10.90;;;26.10;21.90;;;;;;5069175;28;20464;-58
2022/07/21 08:05:40;;;;;;;13.20;10.50;;;26.20;22.10;;;;;;5074921;28;20487;-61
2022/07/21 08:08:06;;;;;;;10.47;9.30;;;26.40;21.40;;;;;;5062526;28;20457;-58
2022/07/21 08:10:35;;;;;;;13.70;10.77;;;26.50;20.30;;;;;;5065323;28;20485;-59
2022/07/21 08:13:02;;;;;;;10.27;8.70;;;26.90;19.80;;;;;;5067100;28;20472;-59
2022/07/21 08:15:29;;;;;;;10.30;9.20;;;27.90;18.80;;;;;;5067219;28;20453;-60
2022/07/21 08:17:55;;;;;;;11.40;10.17;;;29.00;16.00;;;;;;5066993;28;20477;-59
2022/07/21 08:20:22;;;;;;;13.07;9.57;;;29.40;15.10;;;;;;5062478;28;20496;-60
2022/07/21 08:22:49;;;;;;;10.30;9.07;;;30.50;12.50;;;;;;5065419;28;20461;-60
2022/07/21 08:25:15;;;;;;;10.00;8.77;;;31.80;11.50;;;;;;5068200;28;20457;-60
2022/07/21 08:27:44;;;;;;;10.57;9.53;;;33.60;8.50;;;;;;5068451;28;20445;-59
2022/07/21 08:30:11;;;;;;;13.93;9.63;;;35.00;6.80;;;;;;5069273;28;20545;-59
2022/07/21 08:32:38;;;;;;;10.83;9.57;;;36.80;3.60;;;;;;5071806;28;20480;-60
2022/07/21 08:35:08;;;;;;;10.30;9.20;;;37.80;2.10;;;;;;5067106;28;20468;-60
2022/07/21 08:37:35;;;;;;;9.67;8.67;;;38.00;1.00;;;;;;5076328;28;20487;-60
2022/07/21 08:40:02;;;;;;;9.77;8.07;;;37.80;1.00;;;;;;5068366;28;20508;-59
2022/07/21 08:42:28;;;;;;;9.67;8.67;;;38.10;1.00;;;;;;5077357;28;20457;-59
2022/07/21 08:44:57;;;;;;;9.70;8.40;;;38.50;1.00;;;;;;5067945;28;20457;-58
2022/07/21 08:47:25;;;;;;;8.90;7.87;;;38.60;1.00;;;;;;5064566;28;20461;-60
2022/07/21 08:49:52;;;;;;;10.60;7.83;;;39.30;1.00;;;;;;5074641;28;20497;-59
2022/07/21 08:52:18;;;;;;;8.40;7.23;;;40.90;1.00;;;;;;5067907;28;20498;-59
2022/07/21 08:54:45;;;;;;;8.97;8.07;;;40.10;1.00;;;;;;5066561;28;20462;-60
2022/07/21 08:57:12;;;;;;;11.37;8.43;;;39.00;1.00;;;;;;5070112;28;20656;-59
2022/07/21 08:59:39;;;;;;;10.70;8.53;;;37.80;1.00;;;;;;5081589;28;20477;-60
2022/07/21 09:02:26;;;;;;;10.07;8.13;;;36.80;1.00;;;;;;5069589;28;20476;-60
2022/07/21 09:04:54;;;;;;;13.53;8.40;;;35.70;1.00;;;;;;5062462;28;20465;-58
2022/07/21 09:07:22;;;;;;;11.00;9.90;;;35.30;1.10;;;;;;5073981;28;20548;-58
2022/07/21 09:09:56;;;;;;;9.10;8.20;;;36.00;1.20;;;;;;5068810;28;21024;-59
2022/07/21 09:12:23;;;;;;;8.93;8.03;;;38.90;1.00;;;;;;5064786;28;20976;-60
2022/07/21 09:14:50;;;;;;;7.80;6.83;;;41.30;1.00;;;;;;5068441;28;20891;-60
2022/07/21 09:17:19;;;;;;;8.00;7.10;;;43.40;1.00;;;;;;5072838;28;20643;-59
2022/07/21 09:19:48;;;;;;;11.30;7.27;;;44.60;1.00;;;;;;5068752;28;20488;-59
2022/07/21 09:22:18;;;;;;;7.53;6.73;;;45.10;1.00;;;;;;5065969;28;20461;-60
2022/07/21 09:24:49;;;;;;;7.80;7.03;;;45.30;1.00;;;;;;5067393;28;20449;-60
2022/07/21 09:27:17;;;;;;;7.37;6.67;;;45.00;1.00;;;;;;5066270;28;20468;-58
2022/07/21 09:29:47;;;;;;;7.37;6.57;;;44.40;1.00;;;;;;5068523;28;20891;-60
2022/07/21 09:32:16;;;;;;;9.10;6.77;;;45.60;1.00;;;;;;5074308;28;20481;-60
2022/07/21 09:34:45;;;;;;;11.13;7.03;;;46.10;1.00;;;;;;5067420;28;20453;-60
2022/07/21 09:37:12;;;;;;;7.40;6.70;;;45.20;1.00;;;;;;5069652;28;20948;-59
2022/07/21 09:39:47;;;;;;;8.40;6.53;;;44.50;1.00;;;;;;5073562;28;20475;-60
2022/07/21 09:42:16;;;;;;;8.40;7.50;;;45.20;1.00;;;;;;5063829;28;20483;-59
2022/07/21 09:44:45;;;;;;;8.37;7.03;;;44.60;1.00;;;;;;5058947;28;20473;-59
2022/07/21 09:47:13;;;;;;;10.07;7.10;;;44.40;1.00;;;;;;5066430;28;20457;-62
2022/07/21 09:49:41;;;;;;;9.67;7.20;;;44.20;1.00;;;;;;5063258;28;20488;-60
2022/07/21 09:52:24;;;;;;;9.20;7.00;;;44.00;1.00;;;;;;5062403;28;20472;-57
2022/07/21 09:54:51;;;;;;;8.90;7.10;;;43.80;1.00;;;;;;5063162;28;21004;-56
2022/07/21 09:57:19;;;;;;;7.83;6.50;;;43.30;1.00;;;;;;5063108;28;20472;-57
2022/07/21 09:59:48;;;;;;;7.40;6.30;;;42.70;1.00;;;;;;5064230;28;20487;-55
2022/07/21 10:02:18;;;;;;;8.53;6.70;;;41.70;1.00;;;;;;5068080;28;20469;-56
2022/07/21 10:04:47;;;;;;;8.27;7.47;;;40.70;1.00;;;;;;5061889;28;20488;-59
2022/07/21 10:07:16;;;;;;;7.47;6.60;;;39.60;1.00;;;;;;5062892;28;20464;-59
2022/07/21 10:09:45;;;;;;;8.30;6.70;;;38.70;1.00;;;;;;5057085;28;21021;-61
2022/07/21 10:12:13;;;;;;;8.27;6.93;;;38.20;1.00;;;;;;5060471;28;20514;-61
2022/07/21 10:14:39;;;;;;;7.80;6.63;;;38.00;1.00;;;;;;5065230;28;20468;-62
2022/07/21 10:17:06;;;;;;;8.53;7.50;;;37.80;1.00;;;;;;5062243;28;20465;-60
2022/07/21 10:19:40;;;;;;;9.10;7.23;;;37.30;1.00;;;;;;5058312;28;20516;-61
2022/07/21 10:22:16;;;;;;;7.87;6.97;;;36.80;1.00;;;;;;5066951;28;21025;-61
2022/07/21 10:24:45;;;;;;;8.70;7.80;;;36.40;1.00;;;;;;5064788;28;20543;-62
2022/07/21 10:27:14;;;;;;;11.83;8.37;;;35.90;1.00;;;;;;5063457;28;21023;-62
2022/07/21 10:30:00;;;;;;;8.90;7.87;;;35.40;1.00;;;;;;5064390;28;20489;-62
2022/07/21 10:32:29;;;;;;;8.57;7.67;;;35.00;1.30;;;;;;5061134;28;20482;-62
2022/07/21 10:34:56;;;;;;;7.90;6.80;;;34.80;1.10;;;;;;5082436;28;20457;-63
2022/07/21 10:37:46;;;;;;;8.23;7.43;;;34.50;1.00;;;;;;5076756;28;20452;-60
2022/07/21 10:40:37;;;;;;;8.00;7.20;;;34.40;1.20;;;;;;5080153;28;20485;-61
2022/07/21 10:43:43;;;;;;;10.40;7.53;;;34.20;1.10;;;;;;5069998;28;20456;-62
2022/07/21 10:46:38;;;;;;;8.50;7.40;;;34.00;1.00;;;;;;5063421;28;21110;-63
2022/07/21 10:49:06;;;;;;;9.07;8.00;;;33.80;1.10;;;;;;5071274;28;20460;-61
2022/07/21 10:51:38;;;;;;;8.20;7.40;;;33.60;1.20;;;;;;5073868;28;20476;-63
2022/07/21 10:54:25;;;;;;;10.40;7.80;;;33.30;1.60;;;;;;5076155;28;21003;-61
2022/07/21 10:57:27;;;;;;;8.67;7.77;;;33.10;2.30;;;;;;5068217;28;20986;-63
2022/07/21 11:00:16;;;;;;;8.17;7.37;;;32.80;1.90;;;;;;5063003;28;20543;-61
2022/07/21 11:02:43;;;;;;;8.80;7.87;;;32.60;2.10;;;;;;5069196;28;20461;-62
2022/07/21 11:05:11;;;;;;;9.30;7.73;;;32.50;2.50;;;;;;5069937;28;20467;-61
2022/07/21 11:08:09;;;;;;;9.73;8.03;;;32.50;2.60;;;;;;5066504;28;20465;-61
2022/07/21 11:10:37;;;;;;;10.70;7.43;;;32.30;3.20;;;;;;5071618;28;21211;-64
2022/07/21 11:13:05;;;;;;;9.87;8.30;;;32.30;2.80;;;;;;5071826;28;20468;-62
2022/07/21 11:15:54;;;;;;;7.27;6.40;;;32.00;3.00;;;;;;5074537;28;20962;-60
2022/07/21 11:18:22;;;;;;;8.60;7.13;;;31.70;3.60;;;;;;5068741;28;20556;-61
2022/07/21 11:21:09;;;;;;;8.73;7.53;;;31.50;4.20;;;;;;5067713;28;20488;-62
2022/07/21 11:23:47;;;;;;;7.53;6.73;;;31.40;4.70;;;;;;5067072;28;20453;-63
2022/07/21 11:26:17;;;;;;;8.47;6.53;;;31.40;4.10;;;;;;5072069;28;20464;-60
2022/07/21 11:28:46;;;;;;;8.07;6.83;;;31.40;3.40;;;;;;5070597;28;20452;-60
2022/07/21 11:31:16;;;;;;;9.23;7.20;;;31.60;3.20;;;;;;5062117;28;20487;-62
2022/07/21 11:33:46;;;;;;;7.57;6.10;;;31.60;4.10;;;;;;5076042;28;21007;-61
2022/07/21 11:36:24;;;;;;;13.83;6.40;;;31.70;3.60;;;;;;5074646;28;20831;-61
2022/07/21 11:39:02;;;;;;;7.63;6.57;;;31.90;3.30;;;;;;5075044;28;20575;-61
2022/07/21 11:41:29;;;;;;;9.60;6.60;;;31.90;2.70;;;;;;5063079;28;20492;-59
2022/07/21 11:43:57;;;;;;;7.37;6.57;;;31.80;2.90;;;;;;5066763;28;20493;-60
2022/07/21 11:46:24;;;;;;;7.40;6.57;;;31.60;2.90;;;;;;5058962;28;20461;-60
2022/07/21 11:49:02;;;;;;;7.73;6.33;;;31.40;3.40;;;;;;5062407;28;20461;-60
2022/07/21 11:51:29;;;;;;;9.10;6.77;;;31.30;3.40;;;;;;5062196;28;20546;-62
2022/07/21 11:53:56;;;;;;;8.87;5.90;;;31.10;3.60;;;;;;5061497;28;20469;-62
2022/07/21 11:56:23;;;;;;;10.43;7.03;;;31.00;3.80;;;;;;5063436;28;20495;-61
2022/07/21 11:58:50;;;;;;;9.57;7.07;;;30.90;4.30;;;;;;5069148;28;20484;-62
2022/07/21 12:01:18;;;;;;;6.93;5.97;;;31.00;4.10;;;;;;5067716;28;20995;-60
2022/07/21 12:03:49;;;;;;;9.17;6.40;;;31.10;4.80;;;;;;5062261;28;20544;-59
2022/07/21 12:06:17;;;;;;;9.33;7.00;;;31.20;3.70;;;;;;5068645;28;20964;-59
2022/07/21 12:08:45;;;;;;;7.40;5.70;;;31.40;3.30;;;;;;5066593;28;20464;-59
2022/07/21 12:11:12;;;;;;;8.20;6.20;;;31.60;2.90;;;;;;5076363;28;20488;-62
2022/07/21 12:14:00;;;;;;;10.03;7.07;;;31.80;2.90;;;;;;5079181;28;20495;-63
2022/07/21 12:16:29;;;;;;;9.70;6.30;;;31.90;2.60;;;;;;5066559;28;20453;-59
2022/07/21 12:19:12;;;;;;;8.53;6.73;;;32.00;3.20;;;;;;5062870;28;20470;-60
2022/07/21 12:21:50;;;;;;;7.60;6.80;;;32.20;2.60;;;;;;5057383;28;20945;-60
2022/07/21 12:24:17;;;;;;;7.87;6.50;;;32.40;1.80;;;;;;5061721;28;20496;-60
2022/07/21 12:26:45;;;;;;;8.20;6.97;;;32.40;1.00;;;;;;5064769;28;20472;-61
2022/07/21 12:29:26;;;;;;;8.33;6.83;;;32.20;1.00;;;;;;5068702;28;20461;-63
2022/07/21 12:31:54;;;;;;;10.30;7.10;;;31.90;1.10;;;;;;5063447;28;20473;-62
2022/07/21 12:34:22;;;;;;;8.30;7.20;;;31.70;3.10;;;;;;5059341;28;20462;-59
2022/07/21 12:36:49;;;;;;;8.93;7.13;;;31.70;2.90;;;;;;5059174;28;21153;-59
2022/07/21 12:42:10;;;;;;;7.80;6.53;;;31.70;2.80;;;;;;5065695;28;21021;-62
2022/07/21 12:44:38;;;;;;;9.23;6.63;;;31.80;2.90;;;;;;5064010;28;20468;-62
2022/07/21 12:47:18;;;;;;;10.10;7.13;;;31.90;3.30;;;;;;5057974;28;20491;-61
2022/07/21 12:49:59;;;;;;;7.73;6.93;;;31.90;3.40;;;;;;5074412;22;20500;-71